Terminal Aerodrome Forecast
Issued by NWS

Home | Current Version | Previous Version | Text Only | Print | Product List | Glossary On
Versions: 1 2 3 4 5 6 7 8 9 10 11 12 13
224
FTAK31 PAJN 261134
TAFAKT
TAF
PAKT 261134Z 2612/2712 14005KT P6SM OVC050
     FM261600 14007KT P6SM -RA BKN025 OVC035
     FM262000 13009KT 6SM -RA BR BKN015 OVC025
     FM270000 15011KT 4SM -RA BR BKN015 OVC025
     FM270400 14008KT 4SM -RA BR SCT003 OVC007
      AMD LTD TO CLD VIS AND WIND 2612/2615=

USA.gov is the U.S. government's official web portal to all federal, state and local government web resources and services.